Time;durP1;ratioP1;P1;durP2;ratioP2;P2;SDS_P1;SDS_P2;PMS_P1;PMS_P2;Temp;Humidity;BMP_temperature;BMP_pressure;BME280_temperature;BME280_humidity;BME280_pressure;Samples;Min_cycle;Max_cycle;Signal;HPM_P1;HPM_P2
2022/10/02 00:00:38;;;;;;;14.47;8.53;;;;;;;14.21;75.18;101172.05;1924556;74;21137;-61
2022/10/02 00:03:16;;;;;;;11.05;7.08;;;;;;;14.23;75.26;101178.12;1924719;74;21122;-66
2022/10/02 00:05:47;;;;;;;14.35;7.30;;;;;;;14.24;75.16;101183.36;1915738;74;21036;-62
2022/10/02 00:08:21;;;;;;;12.00;7.65;;;;;;;14.23;75.08;101175.00;1891396;75;21019;-63
2022/10/02 00:10:58;;;;;;;8.78;6.33;;;;;;;14.22;75.07;101168.45;1891526;75;21055;-62
2022/10/02 00:13:32;;;;;;;8.73;5.67;;;;;;;14.24;75.02;101171.91;1898482;74;21071;-62
2022/10/02 00:16:04;;;;;;;18.27;7.60;;;;;;;14.24;74.95;101168.79;1921635;74;21047;-64
2022/10/02 00:18:35;;;;;;;18.40;6.87;;;;;;;14.22;74.90;101170.66;1917048;74;21577;-64
2022/10/02 00:21:34;;;;;;;16.85;8.40;;;;;;;14.19;74.97;101165.97;1922132;74;21118;-65
2022/10/02 00:24:09;;;;;;;12.73;6.50;;;;;;;14.16;75.08;101161.66;1924649;74;21140;-64
2022/10/02 00:26:40;;;;;;;16.25;8.08;;;;;;;14.12;75.08;101164.06;1924541;74;21067;-65
2022/10/02 00:29:23;;;;;;;13.38;7.85;;;;;;;14.10;75.17;101160.16;1902674;74;21094;-66
2022/10/02 00:31:54;;;;;;;17.90;7.20;;;;;;;14.07;75.30;101154.15;1890944;75;21044;-66
2022/10/02 00:34:35;;;;;;;82.27;21.12;;;;;;;14.06;75.33;101149.33;1890741;75;21047;-66
2022/10/02 00:37:19;;;;;;;41.42;11.30;;;;;;;14.05;75.30;101149.39;1891074;75;21473;-65
2022/10/02 00:40:03;;;;;;;167.95;38.00;;;;;;;14.03;75.28;101132.72;1893182;74;21043;-64
2022/10/02 00:42:52;;;;;;;89.95;24.60;;;;;;;14.02;75.22;101133.20;1891572;76;21011;-63
2022/10/02 00:45:42;;;;;;;121.17;34.40;;;;;;;14.00;75.25;101131.53;1891380;76;21458;-63
2022/10/02 00:48:41;;;;;;;97.20;28.90;;;;;;;13.99;75.19;101131.16;1899476;74;21126;-64
2022/10/02 00:51:34;;;;;;;79.15;22.98;;;;;;;13.97;75.30;101129.05;1923117;74;21016;-62
2022/10/02 00:54:08;;;;;;;75.50;21.77;;;;;;;13.96;75.30;101123.35;1923115;74;21008;-62
2022/10/02 00:56:52;;;;;;;45.50;14.13;;;;;;;13.94;75.39;101124.74;1890810;74;21063;-62
2022/10/02 00:59:26;;;;;;;49.00;13.05;;;;;;;13.96;75.48;101126.88;1874682;75;21139;-61
2022/10/02 01:02:16;;;;;;;48.87;15.78;;;;;;;13.97;75.50;101126.41;1891877;74;21024;-63
2022/10/02 01:04:46;;;;;;;39.73;12.75;;;;;;;13.98;75.48;101132.08;1890377;74;21067;-64
2022/10/02 01:07:15;;;;;;;27.95;10.72;;;;;;;13.98;75.57;101125.02;1922176;74;21109;-62
2022/10/02 01:09:44;;;;;;;76.20;19.62;;;;;;;14.00;75.65;101126.23;1924599;74;21040;-61
2022/10/02 01:12:14;;;;;;;92.82;20.62;;;;;;;14.03;75.71;101126.11;1924754;74;21172;-62
2022/10/02 01:14:43;;;;;;;58.87;16.45;;;;;;;14.04;75.65;101121.22;1904622;74;21490;-62
2022/10/02 01:17:23;;;;;;;28.02;9.15;;;;;;;14.04;75.70;101122.54;1924255;74;21109;-62
2022/10/02 01:19:52;;;;;;;15.32;6.70;;;;;;;14.04;75.71;101110.63;1907611;74;21575;-62
2022/10/02 01:22:24;;;;;;;13.05;7.00;;;;;;;14.07;75.64;101105.16;1902684;74;21188;-66
2022/10/02 01:24:54;;;;;;;12.07;6.58;;;;;;;14.09;75.64;101100.65;1899282;74;21040;-66
2022/10/02 01:27:25;;;;;;;17.15;7.37;;;;;;;14.09;75.63;101094.03;1895398;74;21488;-66
2022/10/02 01:30:02;;;;;;;12.85;6.60;;;;;;;14.09;75.73;101095.35;1924589;74;21032;-65
2022/10/02 01:32:33;;;;;;;15.78;6.65;;;;;;;14.06;75.85;101091.08;1903129;74;21661;-65
2022/10/02 01:35:04;;;;;;;10.20;5.10;;;;;;;14.05;75.98;101088.49;1891508;76;21053;-65
2022/10/02 01:37:36;;;;;;;9.25;5.30;;;;;;;14.03;76.81;101088.56;1891424;76;21041;-64
2022/10/02 01:40:11;;;;;;;14.03;5.62;;;;;;;14.05;76.87;101088.49;1902494;74;21023;-64
2022/10/02 01:42:40;;;;;;;8.45;4.55;;;;;;;14.05;76.75;101087.17;1924566;74;21068;-64
2022/10/02 01:45:10;;;;;;;5.95;4.17;;;;;;;14.02;76.73;101073.63;1918661;74;21530;-65
2022/10/02 01:47:51;;;;;;;9.58;5.25;;;;;;;14.02;76.79;101073.63;1904530;75;21016;-66
2022/10/02 01:50:22;;;;;;;13.08;5.65;;;;;;;14.01;76.80;101069.72;1872138;76;21124;-65
2022/10/02 01:53:09;;;;;;;9.53;4.85;;;;;;;14.03;76.76;101071.35;1825001;75;21001;-66
2022/10/02 01:56:02;;;;;;;9.43;5.22;;;;;;;14.01;76.77;101069.72;1891503;75;21110;-64
2022/10/02 01:58:46;;;;;;;9.53;4.33;;;;;;;14.01;76.67;101069.72;1905248;75;21068;-63
2022/10/02 02:01:35;;;;;;;6.85;4.45;;;;;;;14.04;76.80;101069.11;1903084;75;21801;-64
2022/10/02 02:04:13;;;;;;;7.45;4.55;;;;;;;14.13;77.24;101061.64;1901972;75;21044;-65
2022/10/02 02:06:53;;;;;;;10.63;4.65;;;;;;;14.23;77.69;101062.44;1888969;75;21030;-65
2022/10/02 02:09:30;;;;;;;8.90;4.12;;;;;;;14.35;78.11;101061.44;1880506;75;21035;-65
2022/10/02 02:12:08;;;;;;;8.93;4.62;;;;;;;14.45;78.20;101060.06;1878295;75;21094;-64
2022/10/02 02:14:49;;;;;;;8.43;5.22;;;;;;;14.57;78.55;101062.14;1896510;74;21429;-65
2022/10/02 02:17:29;;;;;;;11.08;5.22;;;;;;;14.70;78.95;101065.47;1886175;75;21020;-65
2022/10/02 02:20:07;;;;;;;12.68;6.00;;;;;;;14.78;79.13;101073.90;1878231;75;21132;-65
2022/10/02 02:22:45;;;;;;;11.18;5.60;;;;;;;14.80;79.04;101064.08;1882194;75;21032;-65
2022/10/02 02:25:22;;;;;;;10.50;6.50;;;;;;;14.81;78.95;101064.44;1872332;76;21012;-63
2022/10/02 02:27:53;;;;;;;10.18;6.15;;;;;;;14.85;79.29;101057.59;1903378;75;21615;-64
2022/10/02 02:30:23;;;;;;;15.05;5.95;;;;;;;14.92;79.55;101059.47;1904143;74;21137;-65
2022/10/02 02:33:00;;;;;;;9.45;5.20;;;;;;;14.93;79.53;101061.17;1905172;75;21537;-66
2022/10/02 02:35:41;;;;;;;7.85;4.65;;;;;;;14.90;79.49;101044.08;1905131;75;21404;-66
2022/10/02 02:38:12;;;;;;;11.55;5.62;;;;;;;14.93;79.60;101039.95;1904537;74;21122;-66
2022/10/02 02:40:44;;;;;;;10.65;5.58;;;;;;;14.92;79.67;101036.94;1903407;74;21106;-66
2022/10/02 02:43:24;;;;;;;9.05;5.12;;;;;;;14.89;79.61;101026.48;1905132;74;21004;-66
2022/10/02 02:45:58;;;;;;;16.30;5.95;;;;;;;14.86;79.62;101019.55;1911567;74;21144;-64
2022/10/02 02:48:33;;;;;;;12.45;5.92;;;;;;;14.86;79.73;101012.05;1910385;74;21461;-64
2022/10/02 02:51:05;;;;;;;10.43;5.20;;;;;;;14.86;79.78;101006.75;1889109;75;21051;-65
2022/10/02 02:53:37;;;;;;;15.90;6.60;;;;;;;14.87;79.82;101000.52;1921236;74;21502;-64
2022/10/02 02:56:08;;;;;;;13.95;8.55;;;;;;;14.87;79.78;100988.59;1924413;74;21040;-65
2022/10/02 02:58:58;;;;;;;14.23;7.47;;;;;;;14.86;79.70;100998.80;1922214;74;21097;-61
2022/10/02 03:01:27;;;;;;;13.05;6.92;;;;;;;14.82;79.66;101003.88;1923406;74;21071;-62
2022/10/02 03:03:56;;;;;;;13.78;6.83;;;;;;;14.77;79.67;101003.25;1924518;74;21036;-62
2022/10/02 03:06:30;;;;;;;16.97;7.12;;;;;;;14.74;79.70;101008.73;1924524;74;21031;-62
2022/10/02 03:09:00;;;;;;;10.10;5.85;;;;;;;14.70;79.77;101017.31;1922278;74;21486;-61
2022/10/02 03:11:46;;;;;;;11.30;6.37;;;;;;;14.67;79.83;101017.46;1924545;74;21023;-62
2022/10/02 03:14:42;;;;;;;12.05;6.97;;;;;;;14.69;79.86;101014.27;1924631;74;21097;-61
2022/10/02 03:17:26;;;;;;;14.58;7.90;;;;;;;14.66;79.86;101016.62;1924461;74;21485;-62
2022/10/02 03:19:55;;;;;;;;;;;;;;;14.59;79.79;101005.94;1924024;74;21032;-62
2022/10/02 03:22:58;;;;;;;24.15;9.38;;;;;;;14.54;79.83;101007.08;1916951;74;20120;-61
2022/10/02 03:25:36;;;;;;;12.03;5.53;;;;;;;14.52;79.95;101001.86;1923198;74;21446;-61
2022/10/02 03:28:20;;;;;;;10.60;5.25;;;;;;;14.56;80.15;100986.18;1923345;74;21133;-63
2022/10/02 03:30:49;;;;;;;;;;;;;;;14.64;80.12;100990.66;1924661;74;21127;-62
2022/10/02 03:33:19;;;;;;;11.25;6.10;;;;;;;14.71;80.20;100992.98;1924613;74;20108;-62
2022/10/02 03:35:49;;;;;;;14.85;6.53;;;;;;;14.73;79.91;100984.48;1924615;74;21474;-62
2022/10/02 03:38:20;;;;;;;26.50;8.48;;;;;;;14.76;79.81;100984.33;1924620;74;21524;-61
2022/10/02 03:40:51;;;;;;;17.02;6.90;;;;;;;14.75;79.73;100983.92;1905666;74;21051;-62
2022/10/02 03:43:22;;;;;;;20.48;9.28;;;;;;;14.75;79.73;100986.58;1891408;74;21188;-62
2022/10/02 03:45:51;;;;;;;21.33;9.13;;;;;;;14.74;79.77;100983.56;1889808;75;21039;-62
2022/10/02 03:48:20;;;;;;;14.28;7.28;;;;;;;14.72;79.77;100978.78;1882508;75;21499;-62
2022/10/02 03:50:52;;;;;;;17.23;8.50;;;;;;;14.71;79.82;100975.76;1892620;75;21105;-62
2022/10/02 03:53:24;;;;;;;21.40;9.18;;;;;;;14.70;79.90;100984.19;1873177;75;21087;-63
2022/10/02 03:55:56;;;;;;;31.70;10.00;;;;;;;14.67;79.91;100971.93;1872626;76;21105;-62
2022/10/02 03:58:26;;;;;;;43.90;12.43;;;;;;;14.65;79.96;100969.83;1872775;77;21032;-62
2022/10/02 04:01:13;;;;;;;51.65;17.15;;;;;;;14.65;80.01;100963.20;1874846;75;21036;-62
2022/10/02 04:03:47;;;;;;;52.08;16.62;;;;;;;14.67;79.97;100954.70;1862316;76;21080;-61
2022/10/02 04:06:37;;;;;;;40.38;13.40;;;;;;;14.67;79.89;100957.35;1871070;76;21119;-62
2022/10/02 04:09:14;;;;;;;49.58;18.67;;;;;;;14.69;79.95;100959.08;1872519;76;21036;-62
2022/10/02 04:11:52;;;;;;;28.10;12.07;;;;;;;14.71;79.97;100955.87;1874361;75;21063;-62
2022/10/02 04:14:26;;;;;;;27.25;10.55;;;;;;;14.77;80.04;100959.08;1872592;76;21121;-62
2022/10/02 04:16:58;;;;;;;22.62;10.55;;;;;;;14.85;80.06;100948.05;1872529;76;21076;-62
2022/10/02 04:19:35;;;;;;;26.07;10.35;;;;;;;14.89;80.02;100948.27;1872715;76;21099;-62
2022/10/02 04:22:16;;;;;;;20.55;10.55;;;;;;;14.92;80.04;100949.44;1874919;75;21494;-62
2022/10/02 04:24:47;;;;;;;26.33;10.78;;;;;;;14.98;80.04;100953.08;1871265;76;21558;-63
2022/10/02 04:27:34;;;;;;;40.12;13.28;;;;;;;15.02;80.00;100943.16;1871881;76;21068;-62
2022/10/02 04:30:08;;;;;;;19.02;9.90;;;;;;;15.09;80.03;100936.59;1872679;77;21044;-61
2022/10/02 04:32:37;;;;;;;17.27;9.23;;;;;;;15.25;80.23;100928.62;1874602;75;21138;-62
2022/10/02 04:35:27;;;;;;;21.45;9.73;;;;;;;15.45;80.30;100924.85;1872900;76;21490;-63
2022/10/02 04:38:20;;;;;;;21.42;10.28;;;;;;;15.65;80.30;100923.72;1872445;76;21553;-63
2022/10/02 04:41:07;;;;;;;31.20;11.22;;;;;;;15.86;80.23;100920.80;1869055;76;21068;-63
2022/10/02 04:43:38;;;;;;;30.97;11.65;;;;;;;16.06;80.18;100918.30;1874266;75;21494;-63
2022/10/02 04:46:10;;;;;;;21.77;9.65;;;;;;;16.19;79.82;100918.83;1872661;76;21040;-63
2022/10/02 04:49:01;;;;;;;24.12;10.20;;;;;;;16.33;79.59;100925.11;1885726;75;21518;-63
2022/10/02 04:51:54;;;;;;;24.55;10.03;;;;;;;16.44;79.49;100935.09;1903506;74;21510;-63
2022/10/02 04:54:35;;;;;;;18.48;8.70;;;;;;;16.51;79.38;100933.30;1904818;74;21110;-65
2022/10/02 04:57:12;;;;;;;23.85;9.43;;;;;;;16.62;79.34;100926.45;1884425;74;21122;-64
2022/10/02 04:59:47;;;;;;;11.73;5.37;;;;;;;16.86;79.42;100921.00;1903863;74;21115;-63
2022/10/02 05:02:39;;;;;;;16.67;6.50;;;;;;;17.12;79.55;100916.69;1902169;74;21037;-62
2022/10/02 05:05:38;;;;;;;10.68;5.72;;;;;;;17.36;79.73;100907.59;1905128;75;21033;-61
2022/10/02 05:08:12;;;;;;;8.23;5.35;;;;;;;17.71;79.51;100901.77;1903358;74;21447;-62
2022/10/02 05:10:59;;;;;;;10.28;5.65;;;;;;;18.09;79.31;100891.72;1905059;74;21076;-62
2022/10/02 05:13:52;;;;;;;22.05;10.15;;;;;;;18.46;79.08;100882.52;1902336;74;21060;-61
2022/10/02 05:16:39;;;;;;;22.35;11.50;;;;;;;18.96;78.44;100880.37;1843631;78;21149;-61
2022/10/02 05:19:26;;;;;;;16.42;9.38;;;;;;;19.45;77.80;100863.44;1891214;74;21004;-61
2022/10/02 05:22:13;;;;;;;14.83;7.90;;;;;;;20.03;77.95;100857.73;1905085;75;21123;-61
2022/10/02 05:24:48;;;;;;;17.25;7.90;;;;;;;20.40;78.26;100856.20;1902411;74;21064;-62
2022/10/02 05:27:39;;;;;;;16.07;7.37;;;;;;;20.61;77.47;100853.66;1904713;74;21498;-64
2022/10/02 05:30:16;;;;;;;10.15;6.28;;;;;;;20.95;76.35;100852.77;1904755;74;21040;-61
2022/10/02 05:32:50;;;;;;;7.40;4.12;;;;;;;21.28;75.91;100849.66;1905190;75;21028;-62
2022/10/02 05:35:24;;;;;;;9.20;4.28;;;;;;;21.46;74.80;100841.47;1877651;74;21040;-61
2022/10/02 05:38:15;;;;;;;6.35;3.45;;;;;;;21.64;73.64;100836.41;1872236;76;21060;-62
2022/10/02 05:41:05;;;;;;;5.37;3.60;;;;;;;21.80;71.21;100835.97;1872717;76;21040;-62
2022/10/02 05:44:01;;;;;;;8.18;3.00;;;;;;;22.19;70.17;100832.18;1874952;75;21036;-61
2022/10/02 05:46:32;;;;;;;8.30;3.37;;;;;;;22.53;67.58;100820.70;1914580;75;21027;-61
2022/10/02 05:49:04;;;;;;;9.35;3.37;;;;;;;22.91;65.46;100810.23;1913009;74;21007;-62
2022/10/02 05:51:39;;;;;;;7.15;3.05;;;;;;;23.18;64.33;100812.26;1913502;74;21075;-62
2022/10/02 05:54:16;;;;;;;4.37;3.12;;;;;;;23.47;63.91;100813.61;1914034;75;21023;-62
2022/10/02 05:56:48;;;;;;;6.22;3.33;;;;;;;23.63;63.10;100806.83;1910336;75;21118;-61
2022/10/02 05:59:19;;;;;;;6.37;2.92;;;;;;;23.68;63.11;100796.00;1914639;75;21112;-63
2022/10/02 06:01:50;;;;;;;4.62;2.47;;;;;;;23.59;62.06;100790.62;1911542;75;21121;-63
2022/10/02 06:04:21;;;;;;;4.10;2.70;;;;;;;23.62;61.86;100784.97;1909991;75;21031;-63
2022/10/02 06:06:53;;;;;;;4.83;2.27;;;;;;;23.86;61.40;100785.36;1893498;75;21054;-64
2022/10/02 06:09:37;;;;;;;6.25;2.85;;;;;;;24.42;60.93;100774.68;1882162;76;21148;-61
2022/10/02 06:12:06;;;;;;;;;;;;;;;24.93;60.09;100773.28;1884558;76;21500;-62
2022/10/02 06:14:40;;;;;;;7.20;2.72;;;;;;;25.53;59.45;100769.98;1907459;75;20170;-62
2022/10/02 06:17:15;;;;;;;4.60;3.08;;;;;;;25.74;59.41;100768.78;1914657;75;21023;-62
2022/10/02 06:19:56;;;;;;;7.30;2.58;;;;;;;25.66;57.77;100757.45;1912906;75;21023;-62
2022/10/02 06:22:30;;;;;;;4.55;2.45;;;;;;;25.62;57.32;100760.12;1914585;75;21500;-62
2022/10/02 06:25:02;;;;;;;5.30;2.77;;;;;;;25.28;55.27;100760.84;1912220;74;21097;-62
2022/10/02 06:27:45;;;;;;;4.62;2.98;;;;;;;25.07;55.25;100750.37;1912672;75;21524;-63
2022/10/02 06:30:17;;;;;;;7.97;2.90;;;;;;;25.04;55.76;100743.42;1913497;75;21023;-62
2022/10/02 06:32:58;;;;;;;6.72;3.12;;;;;;;24.92;55.75;100729.86;1914648;75;21027;-62
2022/10/02 06:35:38;;;;;;;6.72;2.62;;;;;;;25.50;55.38;100724.47;1911713;75;21027;-63
2022/10/02 06:38:12;;;;;;;4.10;2.50;;;;;;;26.00;54.84;100717.03;1913460;75;21469;-65
2022/10/02 06:41:06;;;;;;;7.30;2.67;;;;;;;26.71;53.02;100714.96;1914039;75;21493;-63
2022/10/02 06:43:51;;;;;;;3.97;1.70;;;;;;;27.25;52.22;100704.19;1914753;75;21594;-62
2022/10/02 06:46:32;;;;;;;6.20;2.45;;;;;;;27.26;50.77;100709.47;1909817;75;21082;-63
2022/10/02 06:49:13;;;;;;;3.42;2.20;;;;;;;26.55;50.16;100691.94;1901783;74;21035;-63
2022/10/02 06:52:06;;;;;;;5.37;2.17;;;;;;;26.13;50.78;100700.40;1890782;75;21075;-61
2022/10/02 06:55:09;;;;;;;6.13;2.03;;;;;;;26.02;50.72;100693.95;1891613;76;21007;-60
2022/10/02 06:58:02;;;;;;;3.17;1.75;;;;;;;26.22;50.18;100685.61;1904502;74;21109;-60
2022/10/02 07:00:34;;;;;;;2.87;2.10;;;;;;;26.37;49.94;100689.36;1924751;74;21093;-60
2022/10/02 07:03:05;;;;;;;5.97;2.27;;;;;;;26.45;48.98;100670.50;1924508;74;21047;-60
2022/10/02 07:06:03;;;;;;;3.90;1.60;;;;;;;26.78;47.70;100662.45;1881585;76;21047;-60
2022/10/02 07:08:40;;;;;;;7.75;2.55;;;;;;;26.60;47.88;100645.08;1891508;75;21470;-61
2022/10/02 07:11:28;;;;;;;5.15;1.98;;;;;;;26.66;48.38;100643.56;1890373;75;21043;-61
2022/10/02 07:14:03;;;;;;;7.30;2.10;;;;;;;26.37;47.28;100624.58;1891457;76;21032;-60
2022/10/02 07:16:44;;;;;;;4.55;1.87;;;;;;;26.21;47.71;100621.35;1924630;74;21023;-61
2022/10/02 07:19:24;;;;;;;3.17;1.80;;;;;;;26.24;47.40;100613.42;1924830;74;21196;-61
2022/10/02 07:22:05;;;;;;;5.08;2.02;;;;;;;26.54;47.32;100620.91;1922572;74;21078;-63
2022/10/02 07:24:45;;;;;;;3.25;1.87;;;;;;;26.69;46.52;100614.84;1922571;74;21067;-60
2022/10/02 07:27:17;;;;;;;7.95;2.10;;;;;;;27.01;45.94;100606.42;1924426;74;21056;-60
2022/10/02 07:29:58;;;;;;;7.10;1.92;;;;;;;27.30;45.77;100612.14;1918302;74;21012;-60
2022/10/02 07:33:01;;;;;;;1.82;1.70;;;;;;;27.34;45.44;100609.42;1924489;74;21027;-61
2022/10/02 07:35:51;;;;;;;4.37;2.05;;;;;;;27.34;45.38;100612.12;1922404;74;21035;-60
2022/10/02 07:38:43;;;;;;;6.53;2.25;;;;;;;27.64;44.54;100612.37;1923788;74;21036;-60
2022/10/02 07:41:24;;;;;;;2.58;1.80;;;;;;;28.35;43.33;100602.92;1892492;74;21043;-60
2022/10/02 07:43:56;;;;;;;4.08;1.80;;;;;;;28.81;42.11;100589.87;1892797;74;21176;-60
2022/10/02 07:46:44;;;;;;;4.30;1.77;;;;;;;28.83;41.81;100588.68;1893167;74;21117;-60
2022/10/02 07:49:43;;;;;;;5.83;1.80;;;;;;;28.78;42.40;100569.42;1912564;74;21098;-60
2022/10/02 07:52:36;;;;;;;7.45;1.75;;;;;;;28.76;42.80;100571.47;1863062;77;21630;-61
2022/10/02 07:55:17;;;;;;;3.20;1.80;;;;;;;28.61;42.16;100570.60;1865246;77;21075;-61
2022/10/02 07:57:51;;;;;;;4.28;1.87;;;;;;;28.42;42.90;100561.05;1883346;75;21121;-61
2022/10/02 08:00:26;;;;;;;3.37;1.80;;;;;;;28.63;42.91;100556.36;1893234;74;21090;-61
2022/10/02 08:03:00;;;;;;;5.92;3.15;;;;;;;29.42;41.68;100555.92;1910187;74;21109;-61
2022/10/02 08:05:32;;;;;;;3.98;2.02;;;;;;;29.43;41.00;100560.30;1891450;76;21059;-61
2022/10/02 08:08:18;;;;;;;5.40;1.90;;;;;;;29.15;40.91;100554.17;1891050;75;21121;-61
2022/10/02 08:10:50;;;;;;;2.92;1.80;;;;;;;29.95;40.37;100548.44;1891352;75;21007;-62
2022/10/02 08:13:22;;;;;;;4.03;1.80;;;;;;;30.87;38.71;100549.52;1911028;74;21031;-61
2022/10/02 08:15:53;;;;;;;3.27;1.92;;;;;;;30.67;38.79;100548.53;1924504;74;21113;-62
2022/10/02 08:18:27;;;;;;;1.75;1.30;;;;;;;30.83;38.51;100549.61;1924467;74;21043;-63
2022/10/02 08:20:56;;;;;;;5.83;1.72;;;;;;;30.51;38.84;100541.52;1924557;74;21027;-61
2022/10/02 08:23:37;;;;;;;3.10;1.60;;;;;;;30.46;38.75;100538.55;1922194;74;21067;-61
2022/10/02 08:26:18;;;;;;;5.12;3.00;;;;;;;30.64;38.33;100532.12;1924537;74;21458;-61
2022/10/02 08:28:56;;;;;;;2.98;1.77;;;;;;;31.16;37.46;100542.23;1924316;74;21492;-62
2022/10/02 08:31:26;;;;;;;5.42;1.70;;;;;;;31.20;36.16;100519.02;1924599;74;21144;-60
2022/10/02 08:33:56;;;;;;;2.42;1.50;;;;;;;31.18;36.52;100511.06;1922259;74;21583;-61
2022/10/02 08:36:33;;;;;;;3.02;1.17;;;;;;;31.00;35.17;100503.95;1924695;74;21032;-61
2022/10/02 08:39:17;;;;;;;3.65;1.32;;;;;;;30.63;34.99;100499.17;1923624;74;21129;-60
2022/10/02 08:42:03;;;;;;;4.00;1.52;;;;;;;30.60;35.28;100492.80;1924545;74;21548;-60
2022/10/02 08:44:45;;;;;;;3.58;1.60;;;;;;;30.63;35.76;100481.52;1865134;74;21067;-61
2022/10/02 08:47:33;;;;;;;4.53;1.75;;;;;;;31.20;35.68;100481.48;1928096;74;21488;-62
2022/10/02 08:50:08;;;;;;;2.42;1.75;;;;;;;31.49;34.94;100473.05;1917193;74;21145;-62
2022/10/02 08:52:54;;;;;;;2.72;1.50;;;;;;;31.90;34.74;100474.00;1865970;75;21160;-61
2022/10/02 08:55:38;;;;;;;5.85;1.70;;;;;;;31.81;33.25;100464.34;1892309;74;21102;-61
2022/10/02 08:58:39;;;;;;;3.00;1.32;;;;;;;31.74;32.68;100446.63;1891712;74;21043;-62
2022/10/02 09:01:31;;;;;;;2.75;1.20;;;;;;;31.62;32.68;100436.05;1898895;74;21183;-62
2022/10/02 09:04:22;;;;;;;3.87;1.80;;;;;;;31.43;33.03;100427.60;1914615;74;21067;-61
2022/10/02 09:07:28;;;;;;;4.17;1.65;;;;;;;31.55;33.37;100431.94;1924853;74;21102;-62
2022/10/02 09:10:25;;;;;;;3.25;1.80;;;;;;;31.77;33.06;100420.37;1924914;74;21003;-61
2022/10/02 09:13:06;;;;;;;2.30;1.67;;;;;;;31.92;33.01;100414.20;1896231;75;21166;-59
2022/10/02 09:15:44;;;;;;;2.90;2.22;;;;;;;31.94;32.95;100405.83;1900843;74;21462;-61
2022/10/02 09:18:25;;;;;;;3.40;1.52;;;;;;;31.87;32.84;100400.40;1913731;74;21063;-60
2022/10/02 09:21:13;;;;;;;3.02;1.90;;;;;;;31.80;32.87;100387.30;1868573;75;21207;-60
2022/10/02 09:24:18;;;;;;;6.05;1.80;;;;;;;31.53;32.95;100392.69;1900167;74;21442;-60
2022/10/02 09:26:56;;;;;;;3.10;1.80;;;;;;;31.37;32.85;100390.31;1907479;74;21053;-61
2022/10/02 09:30:02;;;;;;;3.92;1.52;;;;;;;31.31;33.07;100380.27;1896862;74;21033;-61
2022/10/02 09:33:03;;;;;;;3.62;1.98;;;;;;;31.41;32.98;100368.48;1896623;74;21043;-61
2022/10/02 09:36:01;;;;;;;2.12;1.67;;;;;;;31.30;33.03;100370.41;1911108;74;21419;-61
2022/10/02 09:38:48;;;;;;;4.12;1.70;;;;;;;31.50;32.90;100365.91;1904804;74;21041;-61
2022/10/02 15:40:13;;;;;;;5.33;1.62;;;;;;;23.47;47.70;99845.01;1915540;73;25626;-62
2022/10/02 15:42:57;;;;;;;5.53;2.37;;;;;;;23.37;47.93;99845.67;1884563;75;21122;-62
2022/10/02 15:45:32;;;;;;;5.00;2.12;;;;;;;23.31;48.07;99845.83;1881733;76;21030;-62
2022/10/02 15:48:09;;;;;;;4.87;2.12;;;;;;;23.28;48.12;99850.69;1890504;75;21085;-60
2022/10/02 15:50:57;;;;;;;2.35;1.72;;;;;;;23.26;47.93;99836.59;1904412;75;21129;-62
2022/10/02 15:53:47;;;;;;;4.50;1.52;;;;;;;23.26;47.73;99836.59;1912355;75;21501;-62
2022/10/02 15:56:38;;;;;;;2.67;1.55;;;;;;;23.28;47.30;99831.89;1915175;75;21043;-62
2022/10/02 15:59:28;;;;;;;6.37;1.90;;;;;;;23.30;47.00;99838.77;1915192;75;21498;-60
2022/10/02 16:02:29;;;;;;;2.75;1.55;;;;;;;23.31;46.65;99839.59;1882709;75;21071;-58
2022/10/02 16:05:22;;;;;;;4.47;1.50;;;;;;;23.35;46.14;99826.20;1880924;76;21101;-59
2022/10/02 16:08:09;;;;;;;2.33;1.47;;;;;;;23.39;45.39;99828.89;1894768;74;21244;-61
2022/10/02 16:11:14;;;;;;;3.40;1.45;;;;;;;23.43;44.91;99826.20;1873926;74;21027;-61
2022/10/02 16:14:08;;;;;;;2.92;1.12;;;;;;;23.44;44.68;99834.61;1910486;74;21208;-61
2022/10/02 16:16:40;;;;;;;2.55;1.40;;;;;;;23.46;44.31;99842.48;1882584;76;21021;-60
2022/10/02 16:19:30;;;;;;;1.98;0.93;;;;;;;23.47;44.11;99847.69;1880114;76;21029;-64
2022/10/02 16:22:07;;;;;;;3.08;1.50;;;;;;;23.46;43.38;99860.80;1881309;75;21117;-62
2022/10/02 16:25:09;;;;;;;1.98;1.22;;;;;;;23.49;43.29;99871.20;1912780;75;21051;-60
2022/10/02 16:27:49;;;;;;;4.55;1.40;;;;;;;23.45;43.55;99885.98;1816395;78;21538;-60
2022/10/02 16:30:21;;;;;;;3.80;1.50;;;;;;;23.44;43.46;99885.66;1810595;79;21053;-61
2022/10/02 16:32:58;;;;;;;4.28;1.30;;;;;;;23.52;43.74;99903.63;1873012;75;21081;-61
2022/10/02 16:35:41;;;;;;;5.12;1.70;;;;;;;23.56;44.13;99898.77;1915042;75;21510;-60
2022/10/02 16:38:42;;;;;;;2.22;1.22;;;;;;;23.58;44.56;99888.70;1915348;75;21035;-60
2022/10/02 16:41:37;;;;;;;5.92;1.60;;;;;;;23.56;44.88;99891.55;1915352;75;21071;-61
2022/10/02 16:44:24;;;;;;;5.62;1.82;;;;;;;23.55;45.53;99894.39;1915226;75;21079;-61
2022/10/02 16:47:09;;;;;;;6.42;2.05;;;;;;;23.48;46.57;99884.31;1914761;75;21634;-60
2022/10/02 16:49:56;;;;;;;4.33;1.80;;;;;;;23.40;48.38;99877.56;1882757;75;21035;-60
2022/10/02 16:52:43;;;;;;;5.12;1.92;;;;;;;23.32;51.33;99812.58;1875463;76;21063;-60
2022/10/02 16:55:29;;;;;;;8.08;2.15;;;;;;;23.26;52.10;99878.22;1875416;76;21121;-60
2022/10/02 16:58:13;;;;;;;6.97;2.33;;;;;;;23.18;53.53;99882.20;1875379;75;21071;-61
2022/10/02 17:00:50;;;;;;;14.65;2.83;;;;;;;23.09;55.81;99894.27;1873909;76;21016;-60
2022/10/02 17:03:32;;;;;;;6.08;2.45;;;;;;;23.04;56.92;99894.41;1869902;76;21035;-59
2022/10/02 17:06:06;;;;;;;7.45;2.85;;;;;;;23.00;58.60;99884.94;1875371;76;21115;-60
2022/10/02 17:08:47;;;;;;;6.67;2.72;;;;;;;22.94;58.84;99855.08;1873652;76;21035;-60
2022/10/02 17:11:28;;;;;;;7.05;2.10;;;;;;;22.89;60.27;99873.50;1875018;76;21040;-60
2022/10/02 17:14:17;;;;;;;11.35;2.55;;;;;;;22.86;60.47;99857.72;1860918;76;21109;-60
2022/10/02 17:16:58;;;;;;;4.42;2.10;;;;;;;22.82;60.69;99855.02;1877879;76;21069;-61
2022/10/02 17:19:29;;;;;;;5.65;2.22;;;;;;;22.79;60.82;99864.72;1900601;75;21008;-60
2022/10/02 17:22:02;;;;;;;6.72;2.37;;;;;;;22.76;61.25;99852.98;1914594;75;21015;-60
2022/10/02 17:24:49;;;;;;;9.65;3.60;;;;;;;22.68;61.81;99857.78;1910773;75;21113;-60
2022/10/02 17:27:21;;;;;;;9.63;2.98;;;;;;;22.51;63.01;99857.38;1911599;75;21249;-60
2022/10/02 17:30:07;;;;;;;7.92;3.25;;;;;;;22.04;66.18;99848.30;1811096;78;21059;-60
2022/10/02 17:32:52;;;;;;;10.32;3.33;;;;;;;21.39;69.42;99862.74;1897567;75;21104;-60
2022/10/02 17:35:42;;;;;;;12.18;4.42;;;;;;;20.86;74.39;99885.73;1830982;77;21188;-59
2022/10/02 17:38:23;;;;;;;14.68;4.05;;;;;;;20.29;79.20;99881.71;1914000;75;21486;-60
2022/10/02 17:41:01;;;;;;;8.68;4.15;;;;;;;19.97;81.95;99900.22;1885631;75;21514;-60
2022/10/02 17:43:36;;;;;;;18.57;7.95;;;;;;;19.57;86.75;99914.52;1876747;76;21055;-59
2022/10/02 17:46:19;;;;;;;12.60;6.60;;;;;;;19.48;91.18;99950.05;1873683;76;21141;-61
2022/10/02 17:48:51;;;;;;;;;;;;;;;19.38;92.94;99955.33;1864423;76;21220;-63
2022/10/02 17:51:38;;;;;;;14.60;7.33;;;;;;;18.98;92.29;99969.98;1870105;76;20104;-63
2022/10/02 17:57:35;;;;;;;10.68;5.37;;;;;;;18.72;92.71;99963.73;1862030;76;21043;-61
2022/10/02 18:00:12;;;;;;;10.58;4.58;;;;;;;18.74;92.69;99969.78;1857105;76;21052;-62
2022/10/02 18:02:53;;;;;;;9.13;4.97;;;;;;;18.77;92.89;99968.66;1849740;77;21044;-62
2022/10/02 18:05:58;;;;;;;3.42;2.10;;;;;;;18.72;92.98;99958.41;1866316;76;21048;-62
2022/10/02 18:08:49;;;;;;;5.03;1.90;;;;;;;18.44;92.91;99960.76;1857123;76;21508;-63
2022/10/02 18:11:37;;;;;;;3.67;1.07;;;;;;;18.16;92.91;99961.36;1860481;76;21544;-63
2022/10/02 18:14:27;;;;;;;3.00;1.20;;;;;;;17.97;93.41;99970.87;1872385;76;21663;-63
2022/10/02 18:17:17;;;;;;;2.55;1.40;;;;;;;17.82;93.34;99960.13;1796228;76;21132;-63
2022/10/02 18:20:04;;;;;;;2.37;1.15;;;;;;;17.81;93.66;99979.73;1876916;76;21162;-61
2022/10/02 18:23:00;;;;;;;5.50;1.20;;;;;;;17.71;93.61;99991.13;1879064;76;21229;-63
2022/10/02 18:25:51;;;;;;;;;;;;;;;;;;;;;
2022/10/02 18:28:39;;;;;;;3.37;2.10;;;;;;;17.60;93.86;100021.77;1872379;77;21593;-58